createdAt,value
2023-04-17T00:01:18.447Z,99.90
2023-04-17T00:03:47.264Z,99.90
2023-04-17T00:06:16.382Z,99.90
2023-04-17T00:08:44.586Z,99.90
2023-04-17T00:11:12.705Z,99.90
2023-04-17T00:13:41.023Z,99.90
2023-04-17T00:16:10.755Z,99.90
2023-04-17T00:18:40.278Z,99.90
2023-04-17T00:21:08.421Z,99.90
2023-04-17T00:23:36.797Z,99.90
2023-04-17T00:26:04.994Z,99.90
2023-04-17T00:28:34.275Z,99.90
2023-04-17T00:31:02.343Z,99.90
2023-04-17T00:33:30.425Z,99.90
2023-04-17T00:36:00.010Z,99.90
2023-04-17T00:38:28.211Z,99.90
2023-04-17T00:40:56.639Z,99.90
2023-04-17T00:43:24.786Z,99.90
2023-04-17T00:45:54.730Z,99.90
2023-04-17T00:48:24.554Z,99.90
2023-04-17T00:50:53.812Z,99.90
2023-04-17T00:53:23.843Z,99.90
2023-04-17T00:55:53.077Z,99.90
2023-04-17T00:58:21.594Z,99.90
2023-04-17T01:00:50.787Z,99.90
2023-04-17T01:03:19.135Z,99.90
2023-04-17T01:05:51.029Z,99.90
2023-04-17T01:08:19.773Z,99.90
2023-04-17T01:10:49.961Z,99.90
2023-04-17T01:13:18.314Z,99.90
2023-04-17T01:15:47.221Z,99.90
2023-04-17T01:18:16.471Z,99.90
2023-04-17T01:20:44.599Z,99.90
2023-04-17T01:23:13.028Z,99.90
2023-04-17T01:25:42.643Z,99.90
2023-04-17T01:28:11.502Z,99.90
2023-04-17T01:30:39.773Z,99.90
2023-04-17T01:33:09.792Z,99.90
2023-04-17T01:35:38.431Z,99.90
2023-04-17T01:38:06.567Z,99.90
2023-04-17T01:40:34.778Z,99.90
2023-04-17T01:43:04.335Z,99.90
2023-04-17T01:45:32.407Z,99.90
2023-04-17T01:48:01.329Z,99.90
2023-04-17T01:50:29.525Z,99.90
2023-04-17T01:52:57.628Z,99.90
2023-04-17T01:55:25.737Z,99.90
2023-04-17T01:57:54.173Z,99.90
2023-04-17T02:00:24.049Z,99.90
2023-04-17T02:02:52.577Z,99.90
2023-04-17T02:05:21.114Z,99.90
2023-04-17T02:07:51.452Z,99.90
2023-04-17T02:10:20.130Z,99.90
2023-04-17T02:12:48.238Z,99.90
2023-04-17T02:15:16.627Z,99.90
2023-04-17T02:17:47.395Z,99.90
2023-04-17T02:20:15.530Z,99.90
2023-04-17T02:22:43.624Z,99.90
2023-04-17T02:25:11.698Z,99.90
2023-04-17T02:27:39.875Z,99.90
2023-04-17T02:30:09.890Z,99.90
2023-04-17T02:32:38.176Z,99.90
2023-04-17T02:35:09.730Z,99.90
2023-04-17T02:37:38.229Z,99.90
2023-04-17T02:40:08.132Z,99.90
2023-04-17T02:42:36.314Z,99.90
2023-04-17T02:45:05.307Z,99.90
2023-04-17T02:47:33.528Z,99.90
2023-04-17T02:50:03.025Z,99.90
2023-04-17T02:52:37.905Z,99.90
2023-04-17T02:55:07.113Z,99.90
2023-04-17T02:57:35.755Z,99.90
2023-04-17T03:00:07.905Z,99.90
2023-04-17T03:02:36.724Z,99.90
2023-04-17T03:05:05.461Z,99.90
2023-04-17T03:07:33.826Z,99.90
2023-04-17T03:10:03.468Z,99.90
2023-04-17T03:12:32.659Z,99.90
2023-04-17T03:15:02.416Z,99.90
2023-04-17T03:17:30.768Z,99.90
2023-04-17T03:19:59.297Z,99.90
2023-04-17T03:22:27.517Z,99.90
2023-04-17T03:24:55.748Z,99.90
2023-04-17T03:27:28.107Z,99.90
2023-04-17T03:29:56.762Z,99.90
2023-04-17T03:32:26.899Z,99.90
2023-04-17T03:34:55.036Z,99.90
2023-04-17T03:37:23.128Z,99.90
2023-04-17T03:39:51.378Z,99.90
2023-04-17T03:42:19.571Z,99.90
2023-04-17T03:44:49.045Z,99.90
2023-04-17T03:47:17.152Z,99.90
2023-04-17T03:49:45.274Z,99.90
2023-04-17T03:52:14.487Z,99.90
2023-04-17T03:54:43.428Z,99.90
2023-04-17T03:57:13.988Z,99.90
2023-04-17T03:59:42.226Z,99.90
2023-04-17T04:02:12.633Z,99.90
2023-04-17T04:04:41.433Z,99.90
2023-04-17T04:07:16.192Z,99.90
2023-04-17T04:09:44.435Z,99.90
2023-04-17T04:12:12.872Z,99.90
2023-04-17T04:14:43.712Z,99.90
2023-04-17T04:17:13.931Z,99.90
2023-04-17T04:19:43.495Z,99.90
2023-04-17T04:22:13.593Z,99.90
2023-04-17T04:24:53.635Z,99.90
2023-04-17T04:27:27.768Z,99.90
2023-04-17T04:29:58.693Z,99.90
2023-04-17T04:32:29.669Z,99.90
2023-04-17T04:34:58.625Z,99.90
2023-04-17T04:37:29.841Z,99.90
2023-04-17T04:40:10.218Z,99.90
2023-04-17T04:42:42.064Z,99.90
2023-04-17T04:45:19.857Z,99.90
2023-04-17T04:47:49.452Z,99.90
2023-04-17T04:50:17.865Z,99.90
2023-04-17T04:52:46.149Z,99.90
2023-04-17T04:55:26.868Z,99.90
2023-04-17T04:57:57.849Z,99.90
2023-04-17T05:00:27.164Z,99.90
2023-04-17T05:02:59.871Z,99.90
2023-04-17T05:05:30.593Z,99.90
2023-04-17T05:07:59.555Z,99.90
2023-04-17T05:10:32.145Z,99.90
2023-04-17T05:13:03.191Z,99.90
2023-04-17T05:15:31.348Z,99.90
2023-04-17T05:18:01.260Z,99.90
2023-04-17T05:20:32.030Z,99.90
2023-04-17T05:23:00.394Z,99.90
2023-04-17T05:25:28.579Z,99.90
2023-04-17T05:27:58.533Z,99.90
2023-04-17T05:30:26.692Z,99.90
2023-04-17T05:33:07.931Z,99.90
2023-04-17T05:35:44.718Z,99.90
2023-04-17T05:38:14.477Z,99.90
2023-04-17T05:40:42.674Z,99.90
2023-04-17T05:43:13.235Z,99.90
2023-04-17T05:45:42.588Z,99.90
2023-04-17T05:48:12.261Z,99.90
2023-04-17T05:50:40.582Z,99.90
2023-04-17T05:53:09.496Z,99.90
2023-04-17T05:55:45.138Z,99.90
2023-04-17T05:58:23.194Z,99.90
2023-04-17T06:00:54.313Z,99.90
2023-04-17T06:03:24.318Z,99.90
2023-04-17T06:06:01.434Z,99.90
2023-04-17T06:08:29.819Z,99.90
2023-04-17T06:10:58.058Z,99.90
2023-04-17T06:13:26.473Z,99.90
2023-04-17T06:15:55.247Z,99.90
2023-04-17T06:18:24.907Z,99.90
2023-04-17T06:20:53.032Z,99.90
2023-04-17T06:23:21.681Z,99.90
2023-04-17T06:25:50.592Z,99.90
2023-04-17T06:28:19.873Z,99.90
2023-04-17T06:30:52.125Z,99.90
2023-04-17T06:33:21.096Z,99.90
2023-04-17T06:35:50.781Z,99.90
2023-04-17T06:38:36.135Z,99.90
2023-04-17T06:41:04.305Z,99.90
2023-04-17T06:43:32.413Z,99.90
2023-04-17T06:46:11.921Z,99.90
2023-04-17T06:48:40.241Z,99.90
2023-04-17T06:51:09.759Z,99.90
2023-04-17T06:53:38.049Z,99.90
2023-04-17T06:56:07.432Z,99.90
2023-04-17T06:58:42.241Z,99.90
2023-04-17T07:01:10.300Z,99.90
2023-04-17T07:03:39.688Z,99.90
2023-04-17T07:06:09.652Z,99.90
2023-04-17T07:08:37.749Z,99.90
2023-04-17T07:11:06.160Z,99.90
2023-04-17T07:13:34.406Z,99.90
2023-04-17T07:16:03.682Z,99.90
2023-04-17T07:18:32.440Z,99.90
2023-04-17T07:21:01.410Z,99.90
2023-04-17T07:23:30.868Z,99.90
2023-04-17T07:25:58.985Z,99.90
2023-04-17T07:28:27.051Z,99.90
2023-04-17T07:30:58.116Z,99.90
2023-04-17T07:33:26.539Z,99.90
2023-04-17T07:35:54.718Z,99.90
2023-04-17T07:38:23.014Z,99.90
2023-04-17T07:40:52.569Z,99.90
2023-04-17T07:43:20.628Z,99.90
2023-04-17T07:45:49.696Z,99.90
2023-04-17T07:48:18.777Z,99.90
2023-04-17T07:50:47.161Z,99.90
2023-04-17T07:53:15.378Z,99.90
2023-04-17T07:55:43.445Z,99.90
2023-04-17T07:58:13.443Z,99.90
2023-04-17T08:00:42.850Z,99.90
2023-04-17T08:03:11.308Z,99.90
2023-04-17T08:05:39.711Z,99.90
2023-04-17T08:08:07.877Z,99.90
2023-04-17T08:10:36.111Z,99.90
2023-04-17T08:13:04.157Z,99.90
2023-04-17T08:15:33.724Z,99.90
2023-04-17T08:18:02.068Z,99.90
2023-04-17T08:20:30.329Z,99.90
2023-04-17T08:22:58.520Z,99.90
2023-04-17T08:25:26.771Z,99.90
2023-04-17T08:27:54.979Z,99.90
2023-04-17T08:30:23.333Z,99.90
2023-04-17T08:32:52.968Z,99.90
2023-04-17T08:35:21.260Z,99.90
2023-04-17T08:37:49.369Z,99.90
2023-04-17T08:40:18.827Z,99.90
2023-04-17T08:42:49.614Z,99.90
2023-04-17T08:45:18.424Z,99.90
2023-04-17T08:47:46.820Z,99.90
2023-04-17T08:50:18.395Z,99.90
2023-04-17T08:52:47.616Z,99.90
2023-04-17T08:55:18.657Z,99.90
2023-04-17T08:57:57.554Z,99.90
2023-04-17T09:00:27.266Z,99.90
2023-04-17T09:02:57.265Z,99.90
2023-04-17T09:05:30.330Z,99.90
2023-04-17T09:08:11.277Z,99.90
2023-04-17T09:10:40.925Z,99.90
2023-04-17T09:13:09.824Z,99.90
2023-04-17T09:15:38.332Z,99.90
2023-04-17T09:18:06.576Z,99.90
2023-04-17T09:20:50.803Z,99.90
2023-04-17T09:23:19.378Z,99.90
2023-04-17T09:25:47.584Z,99.90
2023-04-17T09:28:16.686Z,99.90
2023-04-17T09:30:44.966Z,99.90
2023-04-17T09:33:13.092Z,99.90
2023-04-17T09:35:42.707Z,99.90
2023-04-17T09:38:11.260Z,99.90
2023-04-17T09:40:40.985Z,99.90
2023-04-17T09:43:10.839Z,99.90
2023-04-17T09:45:42.956Z,99.90
2023-04-17T09:48:12.860Z,99.90
2023-04-17T09:50:42.625Z,99.90
2023-04-17T09:53:11.376Z,99.90
2023-04-17T09:55:43.547Z,99.90
2023-04-17T09:58:12.249Z,99.90
2023-04-17T10:00:42.917Z,99.90
2023-04-17T10:03:11.335Z,99.90
2023-04-17T10:05:39.876Z,99.90
2023-04-17T10:08:09.617Z,99.90
2023-04-17T10:10:37.774Z,99.90
2023-04-17T10:13:12.498Z,99.90
2023-04-17T10:15:41.104Z,99.90
2023-04-17T10:18:23.019Z,99.90
2023-04-17T10:20:53.644Z,99.90
2023-04-17T10:23:33.913Z,99.90
2023-04-17T10:26:41.898Z,99.90
2023-04-17T10:29:10.380Z,99.90
2023-04-17T10:32:21.714Z,99.90
2023-04-17T10:34:50.145Z,99.90
2023-04-17T10:37:18.992Z,99.90
2023-04-17T10:40:02.374Z,99.90
2023-04-17T10:42:32.777Z,99.90
2023-04-17T10:45:04.887Z,99.90
2023-04-17T10:47:34.155Z,99.90
2023-04-17T10:50:04.344Z,99.90
2023-04-17T10:52:44.885Z,99.90
2023-04-17T10:55:17.417Z,99.90
2023-04-17T10:58:00.704Z,99.90
2023-04-17T11:00:32.374Z,99.90
2023-04-17T11:03:01.794Z,99.90
2023-04-17T11:05:31.220Z,99.90
2023-04-17T11:07:59.687Z,99.90
2023-04-17T11:10:29.246Z,99.90
2023-04-17T11:12:57.442Z,99.90
2023-04-17T11:15:29.619Z,99.90
2023-04-17T11:17:58.943Z,99.90
2023-04-17T11:20:29.860Z,99.90
2023-04-17T11:23:01.469Z,99.90
2023-04-17T11:25:33.584Z,99.90
2023-04-17T11:28:03.958Z,99.90
2023-04-17T11:30:34.375Z,99.90
2023-04-17T11:33:03.310Z,99.90
2023-04-17T11:35:33.058Z,99.90
2023-04-17T11:38:12.469Z,99.90
2023-04-17T11:40:50.347Z,99.90
2023-04-17T11:43:19.299Z,99.90
2023-04-17T11:45:48.846Z,99.90
2023-04-17T11:48:20.960Z,99.90
2023-04-17T11:50:49.119Z,99.90
2023-04-17T11:53:18.200Z,99.90
2023-04-17T11:55:48.588Z,99.90
2023-04-17T11:58:16.912Z,99.90
2023-04-17T12:00:45.212Z,99.90
2023-04-17T12:03:34.857Z,99.90
2023-04-17T12:06:04.536Z,99.90
2023-04-17T12:08:32.727Z,99.90
2023-04-17T12:11:02.310Z,99.90
2023-04-17T12:13:32.590Z,99.90
2023-04-17T12:16:00.749Z,99.90
2023-04-17T12:18:28.870Z,99.90
2023-04-17T12:20:57.155Z,99.90
2023-04-17T12:23:25.269Z,99.90
2023-04-17T12:25:53.448Z,99.90
2023-04-17T12:28:23.162Z,99.90
2023-04-17T12:30:51.262Z,99.90
2023-04-17T12:33:19.353Z,99.90
2023-04-17T12:35:47.509Z,99.90
2023-04-17T12:38:15.755Z,99.90
2023-04-17T12:40:45.308Z,99.90
2023-04-17T12:43:14.191Z,99.90
2023-04-17T12:45:45.685Z,99.90
2023-04-17T12:48:15.322Z,99.90
2023-04-17T12:50:44.412Z,99.90
2023-04-17T12:53:13.851Z,99.90
2023-04-17T12:55:43.695Z,99.90
2023-04-17T12:58:14.174Z,99.90
2023-04-17T13:00:44.673Z,99.90
2023-04-17T13:03:13.608Z,99.90
2023-04-17T13:05:42.010Z,99.90
2023-04-17T13:08:14.811Z,99.90
2023-04-17T13:10:43.150Z,99.70
2023-04-17T13:13:11.574Z,99.60
2023-04-17T13:15:39.719Z,99.60
2023-04-17T13:18:10.503Z,99.40
2023-04-17T13:20:38.889Z,99.40
2023-04-17T13:23:07.021Z,99.30
2023-04-17T13:25:35.496Z,99.00
2023-04-17T13:28:03.825Z,98.80
2023-04-17T13:30:33.543Z,98.70
2023-04-17T13:33:01.810Z,98.60
2023-04-17T13:35:31.331Z,98.70
2023-04-17T13:38:02.312Z,98.90
2023-04-17T13:40:30.749Z,98.90
2023-04-17T13:42:58.835Z,98.90
2023-04-17T13:45:27.001Z,98.60
2023-04-17T13:47:55.076Z,98.30
2023-04-17T13:50:23.358Z,98.10
2023-04-17T13:52:52.813Z,98.10
2023-04-17T13:55:21.090Z,97.90
2023-04-17T13:57:54.538Z,98.10
2023-04-17T14:00:23.180Z,98.10
2023-04-17T14:02:51.678Z,97.90
2023-04-17T14:05:19.970Z,97.90
2023-04-17T14:07:48.043Z,97.70
2023-04-17T14:10:17.605Z,97.80
2023-04-17T14:12:45.709Z,97.90
2023-04-17T14:15:14.218Z,97.80
2023-04-17T14:17:43.373Z,97.80
2023-04-17T14:20:12.683Z,97.80
2023-04-17T14:22:40.772Z,97.80
2023-04-17T14:25:09.475Z,97.90
2023-04-17T14:27:39.398Z,97.90
2023-04-17T14:30:09.227Z,97.80
2023-04-17T14:32:38.407Z,97.60
2023-04-17T14:35:07.630Z,97.60
2023-04-17T14:37:35.778Z,97.70
2023-04-17T14:40:04.810Z,97.70
2023-04-17T14:42:40.653Z,97.70
2023-04-17T14:45:16.926Z,97.60
2023-04-17T14:47:45.164Z,97.50
2023-04-17T14:50:13.565Z,97.40
2023-04-17T14:52:41.843Z,97.30
2023-04-17T14:55:11.284Z,97.30
2023-04-17T14:57:40.103Z,97.30
2023-04-17T15:00:09.736Z,97.20
2023-04-17T15:02:39.520Z,97.20
2023-04-17T15:05:08.709Z,97.30
2023-04-17T15:07:36.912Z,97.40
2023-04-17T15:10:06.074Z,97.40
2023-04-17T15:12:34.288Z,97.50
2023-04-17T15:15:02.419Z,97.50
2023-04-17T15:17:30.858Z,97.60
2023-04-17T15:20:01.157Z,97.90
2023-04-17T15:22:29.388Z,97.50
2023-04-17T15:24:57.533Z,97.40
2023-04-17T15:27:25.690Z,97.40
2023-04-17T15:29:53.780Z,97.40
2023-04-17T15:32:22.035Z,97.40
2023-04-17T15:34:50.443Z,97.50
2023-04-17T15:37:20.162Z,97.70
2023-04-17T15:39:48.232Z,97.80
2023-04-17T15:42:16.457Z,97.90
2023-04-17T15:44:44.935Z,97.90
2023-04-17T15:47:14.897Z,97.80
2023-04-17T15:49:43.290Z,97.70
2023-04-17T15:52:11.495Z,97.70
2023-04-17T15:54:41.119Z,97.70
2023-04-17T15:57:09.406Z,97.50
2023-04-17T15:59:37.805Z,97.50
2023-04-17T16:02:09.828Z,97.40
2023-04-17T16:04:39.543Z,97.40
2023-04-17T16:07:07.835Z,97.30
2023-04-17T16:09:35.952Z,97.10
2023-04-17T16:12:08.561Z,97.10
2023-04-17T16:14:37.043Z,97.00
2023-04-17T16:17:05.716Z,96.90
2023-04-17T16:19:33.958Z,96.80
2023-04-17T16:22:03.210Z,96.80
2023-04-17T16:24:31.415Z,96.70
2023-04-17T16:27:01.532Z,96.50
2023-04-17T16:29:31.042Z,96.40
2023-04-17T16:32:14.869Z,96.30
2023-04-17T16:34:58.766Z,96.20
2023-04-17T16:37:27.028Z,95.90
2023-04-17T16:39:55.428Z,96.00
2023-04-17T16:42:24.204Z,95.90
2023-04-17T16:44:53.622Z,95.90
2023-04-17T16:47:21.859Z,96.00
2023-04-17T16:49:50.036Z,95.70
2023-04-17T16:52:18.170Z,95.20
2023-04-17T16:54:46.278Z,95.40
2023-04-17T16:57:18.281Z,95.40
2023-04-17T17:00:08.713Z,95.40
2023-04-17T17:02:39.313Z,95.20
2023-04-17T17:05:09.158Z,95.20
2023-04-17T17:08:19.374Z,95.10
2023-04-17T17:10:49.707Z,94.90
2023-04-17T17:13:17.972Z,94.60
2023-04-17T17:15:46.100Z,94.10
2023-04-17T17:18:15.827Z,93.70
2023-04-17T17:20:43.909Z,93.10
2023-04-17T17:23:12.249Z,92.50
2023-04-17T17:25:40.280Z,92.00
2023-04-17T17:28:08.370Z,91.20
2023-04-17T17:30:36.484Z,90.70
2023-04-17T17:33:05.060Z,90.30
2023-04-17T17:35:34.586Z,89.90
2023-04-17T17:38:02.690Z,88.70
2023-04-17T17:40:30.795Z,88.00
2023-04-17T17:42:58.903Z,87.20
2023-04-17T17:45:27.007Z,87.00
2023-04-17T17:47:55.462Z,87.20
2023-04-17T17:50:23.534Z,87.00
2023-04-17T17:52:52.920Z,87.00
2023-04-17T17:55:21.180Z,86.90
2023-04-17T17:57:50.558Z,86.80
2023-04-17T18:00:19.263Z,86.80
2023-04-17T18:02:47.670Z,86.50
2023-04-17T18:05:16.017Z,86.40
2023-04-17T18:07:44.055Z,86.50
2023-04-17T18:10:13.807Z,86.50
2023-04-17T18:12:41.878Z,86.40
2023-04-17T18:15:11.092Z,86.70
2023-04-17T18:17:39.265Z,86.80
2023-04-17T18:20:08.753Z,87.10
2023-04-17T18:22:38.408Z,87.30
2023-04-17T18:25:07.723Z,87.50
2023-04-17T18:27:37.871Z,87.80
2023-04-17T18:30:06.864Z,88.60
2023-04-17T18:32:35.359Z,88.10
2023-04-17T18:35:05.772Z,88.30
2023-04-17T18:37:33.814Z,88.50
2023-04-17T18:40:02.046Z,88.70
2023-04-17T18:42:30.150Z,89.00
2023-04-17T18:44:59.694Z,89.00
2023-04-17T18:47:27.931Z,89.20
2023-04-17T18:49:56.110Z,89.10
2023-04-17T18:52:24.288Z,89.20
2023-04-17T18:54:52.314Z,89.20
2023-04-17T18:57:20.384Z,89.40
2023-04-17T18:59:48.433Z,89.60
2023-04-17T19:02:17.939Z,89.60
2023-04-17T19:04:46.243Z,89.70
2023-04-17T19:07:14.854Z,89.80
2023-04-17T19:09:42.953Z,90.00
2023-04-17T19:12:11.226Z,90.00
2023-04-17T19:14:39.326Z,90.10
2023-04-17T19:17:07.450Z,90.20
2023-04-17T19:19:37.011Z,90.30
2023-04-17T19:22:05.117Z,90.30
2023-04-17T19:24:33.130Z,90.40
2023-04-17T19:27:01.988Z,90.50
2023-04-17T19:29:30.189Z,90.50
2023-04-17T19:31:58.348Z,90.60
2023-04-17T19:34:26.601Z,90.70
2023-04-17T19:36:56.032Z,90.70
2023-04-17T19:39:24.147Z,90.80
2023-04-17T19:41:52.216Z,90.80
2023-04-17T19:44:20.515Z,90.90
2023-04-17T19:46:48.840Z,91.00
2023-04-17T19:49:16.996Z,91.00
2023-04-17T19:51:45.167Z,91.00
2023-04-17T19:54:15.882Z,91.10
2023-04-17T19:56:44.031Z,91.20
2023-04-17T19:59:13.587Z,91.20
2023-04-17T20:01:43.729Z,91.30
2023-04-17T20:04:12.532Z,91.40
2023-04-17T20:06:40.916Z,91.40
2023-04-17T20:09:09.129Z,91.40
2023-04-17T20:11:38.660Z,91.60
2023-04-17T20:14:06.724Z,91.60
2023-04-17T20:16:34.934Z,91.70
2023-04-17T20:19:03.152Z,91.80
2023-04-17T20:21:31.443Z,91.80
2023-04-17T20:24:00.487Z,91.90
2023-04-17T20:26:28.659Z,92.00
2023-04-17T20:28:58.162Z,92.10
2023-04-17T20:31:26.435Z,92.10
2023-04-17T20:33:54.990Z,92.20
2023-04-17T20:36:23.339Z,92.80
2023-04-17T20:38:52.749Z,92.90
2023-04-17T20:41:21.125Z,92.90
2023-04-17T20:43:59.342Z,92.90
2023-04-17T20:46:27.734Z,92.90
2023-04-17T20:48:56.040Z,93.00
2023-04-17T20:51:26.401Z,93.10
2023-04-17T20:53:55.294Z,93.30
2023-04-17T20:56:24.656Z,93.50
2023-04-17T20:58:52.804Z,93.60
2023-04-17T21:01:22.339Z,93.80
2023-04-17T21:03:50.725Z,94.00
2023-04-17T21:06:21.106Z,94.10
2023-04-17T21:08:49.470Z,94.20
2023-04-17T21:11:17.638Z,94.30
2023-04-17T21:13:45.876Z,94.50
2023-04-17T21:16:14.234Z,94.60
2023-04-17T21:18:43.731Z,94.70
2023-04-17T21:21:12.014Z,94.90
2023-04-17T21:23:40.275Z,94.90
2023-04-17T21:26:08.393Z,95.00
2023-04-17T21:28:37.616Z,95.10
2023-04-17T21:31:08.485Z,95.20
2023-04-17T21:33:36.637Z,95.40
2023-04-17T21:36:06.639Z,95.40
2023-04-17T21:38:34.771Z,95.50
2023-04-17T21:41:02.927Z,95.60
2023-04-17T21:43:31.818Z,95.80
2023-04-17T21:46:00.267Z,95.80
2023-04-17T21:48:28.737Z,95.90
2023-04-17T21:51:02.446Z,96.00
2023-04-17T21:53:32.002Z,96.10
2023-04-17T21:56:00.611Z,96.20
2023-04-17T21:58:28.671Z,96.20
2023-04-17T22:00:56.962Z,96.30
2023-04-17T22:03:25.173Z,96.40
2023-04-17T22:05:54.076Z,96.50
2023-04-17T22:08:22.182Z,96.50
2023-04-17T22:10:52.677Z,96.60
2023-04-17T22:13:20.827Z,96.70
2023-04-17T22:15:49.636Z,96.80
2023-04-17T22:18:17.728Z,96.80
2023-04-17T22:20:46.011Z,96.90
2023-04-17T22:23:14.101Z,97.00
2023-04-17T22:25:42.159Z,97.10
2023-04-17T22:28:11.679Z,97.20
2023-04-17T22:30:39.903Z,97.20
2023-04-17T22:33:08.548Z,97.30
2023-04-17T22:35:36.797Z,97.40
2023-04-17T22:38:04.919Z,97.40
2023-04-17T22:40:33.126Z,97.60
2023-04-17T22:43:01.261Z,97.60
2023-04-17T22:45:30.741Z,97.70
2023-04-17T22:47:58.939Z,97.80
2023-04-17T22:50:29.493Z,97.90
2023-04-17T22:52:57.790Z,98.00
2023-04-17T22:55:25.939Z,98.10
2023-04-17T22:57:54.049Z,98.10
2023-04-17T23:00:22.318Z,98.20
2023-04-17T23:02:51.844Z,98.30
2023-04-17T23:05:20.194Z,98.40
2023-04-17T23:07:48.397Z,98.40
2023-04-17T23:10:16.737Z,98.50
2023-04-17T23:12:44.809Z,98.60
2023-04-17T23:15:13.368Z,98.70
2023-04-17T23:17:41.534Z,98.70
2023-04-17T23:20:11.645Z,98.80
2023-04-17T23:22:39.796Z,98.90
2023-04-17T23:25:09.014Z,98.90
2023-04-17T23:27:37.158Z,98.90
2023-04-17T23:30:06.144Z,99.00
2023-04-17T23:32:34.461Z,99.10
2023-04-17T23:35:02.853Z,99.20
2023-04-17T23:37:32.370Z,99.20
2023-04-17T23:40:01.348Z,99.30
2023-04-17T23:42:29.476Z,99.40
2023-04-17T23:44:57.788Z,99.40
2023-04-17T23:47:26.048Z,99.60
2023-04-17T23:49:54.317Z,99.60
2023-04-17T23:52:22.536Z,99.70
2023-04-17T23:54:52.093Z,99.80
2023-04-17T23:57:20.307Z,99.90
2023-04-17T23:59:48.451Z,99.90
